Time;durP1;ratioP1;P1;durP2;ratioP2;P2;SDS_P1;SDS_P2;PMS_P1;PMS_P2;Temp;Humidity;BMP_temperature;BMP_pressure;BME280_temperature;BME280_humidity;BME280_pressure;Samples;Min_cycle;Max_cycle;Signal;HPM_P1;HPM_P2
2022/03/12 00:01:45;;;;;;;4.33;3.93;;;16.40;57.40;;;16.33;30.42;101087.22;4886309;28;98578;-53
2022/03/12 00:04:11;;;;;;;4.50;4.07;;;16.40;59.00;;;16.35;29.96;101096.00;4865555;28;98700;-50
2022/03/12 00:06:37;;;;;;;7.30;5.87;;;16.40;57.30;;;16.33;28.44;101092.53;4884618;28;98313;-50
2022/03/12 00:09:05;;;;;;;6.27;5.60;;;16.40;54.90;;;16.32;29.86;101090.81;4877262;28;120833;-52
2022/03/12 00:11:36;;;;;;;9.50;6.63;;;16.40;56.80;;;16.33;26.69;101097.00;4884215;28;97746;-51
2022/03/12 00:14:10;;;;;;;7.63;5.73;;;16.40;51.30;;;16.34;29.85;101091.59;4876848;28;97563;-51
2022/03/12 00:16:43;;;;;;;4.07;3.63;;;16.40;56.60;;;16.34;30.30;101093.41;4883281;28;96989;-53
2022/03/12 00:19:09;;;;;;;5.03;4.53;;;16.40;58.70;;;16.30;30.34;101103.34;4868555;28;97079;-50
2022/03/12 00:21:35;;;;;;;3.97;3.57;;;16.30;57.00;;;16.31;30.57;101097.09;4883760;28;97109;-50
2022/03/12 00:24:03;;;;;;;4.53;3.90;;;16.40;59.00;;;16.30;30.67;101098.03;4864614;28;97954;-51
2022/03/12 00:26:31;;;;;;;3.97;3.57;;;16.40;59.20;;;16.33;30.22;101100.53;4883790;28;99776;-50
2022/03/12 00:28:57;;;;;;;6.00;4.67;;;16.40;58.60;;;16.30;28.75;101092.72;4880122;28;97105;-50
2022/03/12 00:31:23;;;;;;;5.40;4.90;;;16.40;55.60;;;16.31;29.73;101098.91;4883800;28;99066;-48
2022/03/12 00:33:49;;;;;;;6.00;4.63;;;16.30;55.50;;;16.26;28.74;101100.94;4882308;28;98913;-62
2022/03/12 00:36:17;;;;;;;7.93;5.80;;;16.30;56.20;;;16.28;27.82;101107.91;4884183;28;102241;-51
2022/03/12 00:38:45;;;;;;;3.63;3.33;;;16.30;53.20;;;16.30;30.21;101098.03;4885602;28;97540;-49
2022/03/12 00:41:13;;;;;;;5.20;4.30;;;16.30;57.50;;;16.31;29.76;101104.22;4874466;28;97466;-49
2022/03/12 00:43:39;;;;;;;3.80;3.43;;;16.30;56.50;;;16.26;30.50;101101.81;4855136;28;99275;-48
2022/03/12 00:46:05;;;;;;;4.10;3.40;;;16.20;57.90;;;16.25;30.34;101100.09;4842900;28;98484;-51
2022/03/12 00:48:32;;;;;;;5.37;4.07;;;16.20;58.40;;;16.25;29.43;101101.91;4884654;28;97364;-52
2022/03/12 00:50:59;;;;;;;4.53;3.90;;;16.20;55.90;;;16.20;30.83;101096.81;4881860;28;97053;-54
2022/03/12 00:53:24;;;;;;;3.67;3.20;;;16.20;58.20;;;16.21;30.61;101103.00;4884924;28;100261;-53
2022/03/12 00:55:50;;;;;;;3.43;3.07;;;16.20;59.30;;;16.21;30.64;101103.84;4882382;28;119960;-53
2022/03/12 00:58:16;;;;;;;4.43;3.70;;;16.20;57.80;;;16.14;30.37;101102.44;4882998;28;96782;-52
2022/03/12 01:00:42;;;;;;;7.33;5.77;;;16.10;57.80;;;16.15;27.57;101101.50;4867744;28;99109;-52
2022/03/12 01:03:07;;;;;;;4.10;3.57;;;16.10;51.50;;;16.15;30.75;101098.84;4881613;28;98844;-49
2022/03/12 01:05:49;;;;;;;5.53;4.10;;;16.10;58.30;;;16.16;28.54;101105.00;4876916;28;121064;-54
2022/03/12 01:08:17;;;;;;;4.87;3.90;;;16.10;57.20;;;16.18;29.05;101104.00;4882773;28;98431;-52
2022/03/12 01:10:44;;;;;;;5.80;4.63;;;16.20;56.30;;;16.17;30.40;101109.41;4879334;28;97475;-51
2022/03/12 01:13:11;;;;;;;6.87;6.17;;;16.20;57.60;;;16.16;29.90;101111.19;4863293;28;97275;-52
2022/03/12 01:15:37;;;;;;;4.40;3.97;;;16.20;55.40;;;16.11;30.43;101107.94;4884874;28;98068;-52
2022/03/12 01:18:03;;;;;;;3.77;3.47;;;16.00;59.20;;;16.15;30.63;101114.81;4882419;28;98253;-54
2022/03/12 01:20:29;;;;;;;7.77;6.83;;;16.10;59.40;;;16.14;25.73;101117.53;4884731;28;97332;-52
2022/03/12 01:22:55;;;;;;;8.57;5.13;;;16.20;54.70;;;16.09;28.64;101114.28;4879939;28;114436;-50
2022/03/12 01:25:21;;;;;;;4.20;3.80;;;16.10;53.50;;;16.08;30.58;101113.41;4883129;28;116060;-50
2022/03/12 01:27:47;;;;;;;9.90;7.60;;;16.00;58.30;;;15.99;24.58;101113.88;4882980;28;97473;-51
2022/03/12 01:30:13;;;;;;;4.57;3.83;;;16.00;50.30;;;15.98;30.40;101122.78;4861114;28;99965;-51
2022/03/12 01:32:39;;;;;;;4.10;3.70;;;15.80;57.00;;;15.95;30.92;101110.50;4881041;28;97516;-50
2022/03/12 01:35:07;;;;;;;7.37;4.93;;;15.80;58.60;;;15.93;29.47;101122.19;4877218;28;112046;-56
2022/03/12 01:37:32;;;;;;;4.47;4.03;;;15.80;53.00;;;15.91;31.07;101124.03;4883098;28;97393;-56
2022/03/12 01:39:58;;;;;;;4.80;4.13;;;15.80;58.30;;;15.92;30.56;101118.66;4880610;28;98193;-50
2022/03/12 01:42:27;;;;;;;6.70;5.63;;;15.80;57.20;;;15.91;29.66;101124.03;4881626;28;100286;-48
2022/03/12 01:44:53;;;;;;;4.83;4.17;;;15.80;53.10;;;15.91;31.31;101137.31;4878413;28;97620;-49
2022/03/12 01:47:21;;;;;;;5.00;3.70;;;15.80;60.20;;;15.91;31.21;101134.66;4885031;28;98124;-50
2022/03/12 01:49:49;;;;;;;7.50;5.47;;;15.90;58.90;;;15.92;30.51;101133.75;4878037;28;98007;-51
2022/03/12 01:52:15;;;;;;;6.37;5.23;;;15.90;56.80;;;15.93;30.44;101130.16;4880039;28;102884;-48
2022/03/12 01:54:42;;;;;;;7.23;5.47;;;15.90;57.10;;;15.98;28.89;101122.78;4884720;28;97536;-55
2022/03/12 01:57:11;;;;;;;6.53;5.73;;;16.00;55.00;;;15.96;30.78;101130.00;4879433;28;97585;-51
2022/03/12 01:59:37;;;;;;;5.60;5.10;;;15.90;58.90;;;15.98;28.73;101134.28;4883291;28;99494;-52
2022/03/12 02:02:08;;;;;;;6.13;5.53;;;16.00;56.20;;;16.01;29.91;101138.59;4879207;28;97383;-56
2022/03/12 02:04:37;;;;;;;5.67;5.00;;;16.00;55.80;;;15.93;29.63;101136.34;4883996;28;98314;-49
2022/03/12 02:07:03;;;;;;;6.73;6.03;;;15.80;55.20;;;15.87;25.71;101133.09;4878257;28;97459;-51
2022/03/12 02:09:29;;;;;;;6.33;5.17;;;15.70;52.80;;;15.84;30.63;101135.94;4883842;28;99290;-54
2022/03/12 02:11:54;;;;;;;5.03;4.43;;;15.70;57.20;;;15.88;31.01;101132.16;4879839;28;101314;-49
2022/03/12 02:14:24;;;;;;;4.03;3.60;;;15.80;58.90;;;15.91;30.90;101142.66;4881527;28;107389;-56
2022/03/12 02:17:01;;;;;;;4.10;3.70;;;15.80;58.30;;;15.95;31.08;101136.25;4880138;28;97406;-53
2022/03/12 02:19:32;;;;;;;4.90;3.47;;;15.90;59.60;;;15.96;31.11;101140.63;4862734;28;98850;-53
2022/03/12 02:22:15;;;;;;;4.23;3.83;;;15.90;59.70;;;16.01;30.99;101135.94;4879468;28;97539;-56
2022/03/12 02:24:42;;;;;;;7.00;5.47;;;16.00;59.90;;;15.96;28.75;101135.31;4884082;28;98178;-54
2022/03/12 02:27:12;;;;;;;4.00;3.60;;;15.90;54.90;;;15.95;30.95;101141.56;4879332;28;97808;-50
2022/03/12 02:29:40;;;;;;;5.43;4.87;;;15.90;58.80;;;15.93;27.21;101146.13;4879130;28;97019;-53
2022/03/12 02:32:13;;;;;;;5.83;5.07;;;15.90;54.10;;;15.92;31.14;101152.38;4881176;28;97833;-49
2022/03/12 02:34:46;;;;;;;8.20;7.40;;;15.80;57.40;;;15.85;29.71;101153.59;4885877;28;97466;-49
2022/03/12 02:37:20;;;;;;;9.07;7.87;;;15.70;52.80;;;15.74;28.13;101162.09;4878764;28;97225;-52
2022/03/12 02:39:46;;;;;;;7.73;6.87;;;15.50;53.30;;;15.52;25.12;101162.28;4871460;28;96783;-49
2022/03/12 02:42:12;;;;;;;8.87;7.87;;;15.30;49.90;;;15.37;23.88;101169.19;4882171;28;98318;-53
2022/03/12 02:44:37;;;;;;;6.03;5.43;;;15.10;50.70;;;15.38;29.66;101156.75;4885193;28;101630;-53
2022/03/12 02:47:15;;;;;;;5.30;4.70;;;15.00;51.60;;;15.38;32.08;101172.69;4880514;28;112710;-52
2022/03/12 02:49:53;;;;;;;7.33;6.13;;;15.00;58.20;;;15.42;32.03;101166.28;4883887;28;97597;-51
2022/03/12 02:52:21;;;;;;;4.67;4.27;;;15.10;59.40;;;15.48;32.09;101166.03;4882479;28;103323;-53
2022/03/12 02:54:49;;;;;;;4.17;3.77;;;15.30;60.00;;;15.58;32.01;101172.59;4901409;28;96661;-50
2022/03/12 02:57:17;;;;;;;10.23;6.53;;;15.40;61.50;;;15.61;30.54;101172.47;4897367;28;97691;-49
2022/03/12 02:59:48;;;;;;;5.43;4.03;;;15.50;54.40;;;15.65;31.81;101176.72;4898913;28;96884;-50
2022/03/12 03:02:13;;;;;;;8.60;7.70;;;15.60;60.00;;;15.64;28.27;101177.69;4876255;28;97106;-54
2022/03/12 03:04:41;;;;;;;8.57;6.07;;;15.60;52.80;;;15.62;30.89;101173.34;4899017;28;97329;-50
2022/03/12 03:07:09;;;;;;;5.23;4.17;;;15.50;56.40;;;15.65;31.70;101179.41;4893689;28;99234;-51
2022/03/12 03:09:35;;;;;;;7.63;6.17;;;15.50;59.70;;;15.70;31.57;101168.53;4892597;28;97864;-55
2022/03/12 03:12:06;;;;;;;7.93;6.23;;;15.60;59.10;;;15.72;30.58;101172.81;4909102;28;97089;-49
2022/03/12 03:14:32;;;;;;;4.30;3.83;;;15.60;57.50;;;15.77;31.63;101167.31;4904629;28;96919;-53
2022/03/12 03:16:59;;;;;;;4.50;4.10;;;15.80;61.10;;;15.89;31.06;101176.44;4899426;28;113816;-50
2022/03/12 03:19:26;;;;;;;4.13;3.73;;;15.90;58.30;;;15.93;31.29;101170.06;4902567;28;97308;-51
2022/03/12 03:21:53;;;;;;;5.07;4.17;;;15.90;60.00;;;15.97;31.13;101174.28;4899959;28;98014;-49
2022/03/12 03:24:21;;;;;;;8.63;5.43;;;16.00;59.10;;;16.01;30.20;101178.50;4910276;28;103593;-49
2022/03/12 03:26:56;;;;;;;6.67;5.83;;;16.00;55.70;;;15.99;27.37;101178.59;4892101;28;97483;-51
2022/03/12 03:29:24;;;;;;;7.17;5.80;;;15.90;53.90;;;16.03;30.65;101180.16;4907491;28;97102;-49
2022/03/12 03:31:51;;;;;;;6.03;4.30;;;16.00;59.40;;;16.03;30.44;101180.16;4893664;28;97445;-60
2022/03/12 03:34:17;;;;;;;4.43;3.93;;;16.00;57.20;;;16.00;30.73;101190.94;4886329;28;101486;-51
2022/03/12 03:36:44;;;;;;;4.60;3.83;;;16.00;58.50;;;15.99;30.71;101188.38;4901915;28;96591;-49
2022/03/12 03:39:10;;;;;;;5.87;5.30;;;15.90;59.10;;;15.94;29.63;101179.75;4900335;28;96990;-48
2022/03/12 03:41:36;;;;;;;6.13;5.50;;;15.90;55.50;;;15.90;29.81;101183.50;4900347;28;113729;-50
2022/03/12 03:44:05;;;;;;;4.73;3.93;;;15.80;55.40;;;15.90;31.03;101178.16;4897323;28;126370;-52
2022/03/12 03:46:31;;;;;;;4.27;3.87;;;15.80;59.90;;;15.94;31.06;101185.09;4888088;28;97726;-53
2022/03/12 03:48:57;;;;;;;4.20;3.80;;;15.80;60.40;;;15.94;31.39;101187.75;4899221;28;97497;-54
2022/03/12 03:51:23;;;;;;;6.27;4.20;;;15.90;60.00;;;15.92;30.86;101194.94;4899151;28;122589;-53
2022/03/12 03:53:50;;;;;;;5.90;5.00;;;15.90;58.20;;;15.94;31.11;101193.94;4901817;28;97661;-61
2022/03/12 03:56:17;;;;;;;7.97;6.57;;;15.90;59.80;;;15.91;28.24;101191.44;4892895;28;97148;-49
2022/03/12 03:58:43;;;;;;;4.13;3.77;;;15.80;56.20;;;15.87;30.58;101194.28;4887075;28;97372;-50
2022/03/12 04:01:15;;;;;;;4.13;3.80;;;15.80;57.70;;;15.91;31.30;101195.84;4892872;28;97643;-52
2022/03/12 04:03:44;;;;;;;7.00;5.83;;;15.80;60.10;;;15.87;27.28;101194.28;4901185;28;103504;-50
2022/03/12 04:06:10;;;;;;;8.10;6.20;;;15.80;55.70;;;15.80;29.87;101198.19;4894511;28;97197;-49
2022/03/12 04:08:37;;;;;;;4.73;4.07;;;15.70;54.70;;;15.82;31.22;101201.66;4902944;28;107785;-48
2022/03/12 04:11:06;;;;;;;10.00;6.97;;;15.70;60.60;;;15.78;30.04;101206.25;4895151;28;96901;-52
2022/03/12 04:13:33;;;;;;;9.63;7.17;;;15.70;55.50;;;15.70;30.53;101209.28;4903980;28;97314;-48
2022/03/12 04:16:00;;;;;;;4.90;4.37;;;15.60;55.60;;;15.69;31.31;101215.53;4894410;28;98850;-48
2022/03/12 04:18:37;;;;;;;5.23;4.73;;;15.50;59.30;;;15.72;31.33;101211.84;4883060;28;97637;-52
2022/03/12 04:21:05;;;;;;;4.97;4.47;;;15.60;59.40;;;15.75;31.71;101201.06;4884475;28;97225;-61
2022/03/12 04:23:31;;;;;;;4.50;4.07;;;15.60;60.80;;;15.77;31.69;101210.72;4843566;28;101161;-51
2022/03/12 04:25:59;;;;;;;4.53;4.07;;;15.70;58.50;;;15.83;30.74;101203.38;4887407;28;97186;-52
2022/03/12 04:28:32;;;;;;;5.90;4.53;;;15.80;58.50;;;15.81;31.20;101208.75;4898663;28;97126;-53
2022/03/12 04:31:03;;;;;;;6.83;5.43;;;15.70;58.60;;;15.84;30.99;101213.06;4896029;28;97400;-52
2022/03/12 04:33:29;;;;;;;7.30;5.83;;;15.80;57.50;;;15.81;29.64;101211.44;4899534;28;97142;-50
2022/03/12 04:35:57;;;;;;;4.33;3.93;;;15.70;55.30;;;15.84;31.60;101215.72;4894499;28;96741;-53
2022/03/12 04:38:25;;;;;;;4.07;3.67;;;15.80;61.40;;;15.84;31.81;101205.09;4888698;28;112284;-50
2022/03/12 04:40:55;;;;;;;4.57;4.00;;;15.80;60.70;;;15.83;31.36;101211.34;4895535;28;96780;-57
2022/03/12 04:43:28;;;;;;;7.57;5.80;;;15.70;58.20;;;15.84;31.54;101213.06;4898669;28;97525;-50
2022/03/12 04:45:55;;;;;;;4.10;3.77;;;15.70;59.20;;;15.84;30.62;101223.72;4891353;28;96792;-50
2022/03/12 04:48:23;;;;;;;5.77;5.17;;;15.80;58.40;;;15.84;31.47;101226.38;4883597;28;97246;-50
2022/03/12 04:50:51;;;;;;;5.07;4.57;;;15.80;58.80;;;15.86;31.30;101232.47;4898770;28;116792;-50
2022/03/12 04:53:18;;;;;;;4.53;4.07;;;15.80;60.40;;;15.90;31.49;101226.06;4898225;28;101629;-51
2022/03/12 04:55:45;;;;;;;7.00;6.30;;;15.80;60.30;;;15.91;30.80;101219.81;4898124;28;97381;-49
2022/03/12 04:58:12;;;;;;;4.70;4.20;;;15.90;58.00;;;15.96;31.11;101220.47;4887708;28;97285;-51
2022/03/12 05:00:39;;;;;;;9.10;6.87;;;16.00;59.50;;;16.02;30.43;101226.31;4898740;28;97657;-49
2022/03/12 05:03:08;;;;;;;7.07;4.97;;;16.00;57.10;;;15.99;31.18;101225.63;4894053;28;97841;-54
2022/03/12 05:05:44;;;;;;;6.00;5.43;;;15.90;59.60;;;15.96;30.84;101223.13;4900292;28;98113;-50
2022/03/12 05:08:19;;;;;;;6.43;5.13;;;15.90;58.50;;;15.95;31.12;101224.06;4897963;28;98993;-49
2022/03/12 05:10:51;;;;;;;6.50;5.63;;;15.80;59.30;;;15.90;30.87;101232.25;4900133;28;97128;-50
2022/03/12 05:13:22;;;;;;;4.87;4.17;;;15.80;58.50;;;15.92;31.35;101229.53;4896741;28;101152;-53
2022/03/12 05:15:52;;;;;;;9.00;7.50;;;15.90;60.90;;;15.96;29.76;101231.09;4900329;28;97446;-49
2022/03/12 05:18:19;;;;;;;4.50;4.10;;;15.90;57.00;;;15.96;31.18;101226.63;4898217;28;97107;-52
2022/03/12 05:20:46;;;;;;;7.53;6.03;;;15.90;59.90;;;15.91;29.94;101227.78;4898302;28;98659;-50
2022/03/12 05:23:14;;;;;;;4.73;4.33;;;15.80;57.10;;;15.80;31.34;101230.13;4897855;28;97300;-48
2022/03/12 05:25:44;;;;;;;5.87;4.73;;;15.60;59.10;;;15.76;31.54;101240.88;4897268;28;97127;-50
2022/03/12 05:28:15;;;;;;;5.73;4.67;;;15.60;61.00;;;15.68;31.32;101237.75;4869361;28;97300;-51
2022/03/12 05:30:46;;;;;;;7.20;6.50;;;15.50;58.10;;;15.59;31.44;101243.50;4881143;28;97659;-50
2022/03/12 05:33:13;;;;;;;7.23;5.93;;;15.30;57.40;;;15.44;31.19;101252.16;4896245;28;96861;-50
2022/03/12 05:35:41;;;;;;;10.53;5.67;;;15.10;57.10;;;15.36;31.82;101246.34;4880754;28;97154;-51
2022/03/12 05:38:11;;;;;;;8.60;7.30;;;14.90;59.20;;;15.33;29.69;101251.78;4875792;28;96876;-50
2022/03/12 05:40:39;;;;;;;9.10;6.13;;;15.00;58.10;;;15.32;32.14;101255.38;4891294;28;97619;-51
2022/03/12 05:43:14;;;;;;;8.43;6.63;;;15.00;60.00;;;15.31;31.35;101253.66;4885670;28;98145;-53
2022/03/12 05:45:49;;;;;;;4.90;4.40;;;15.00;58.40;;;15.38;32.22;101245.34;4891782;28;99719;-49
2022/03/12 05:48:16;;;;;;;9.30;6.60;;;15.20;62.10;;;15.37;31.92;101248.94;4892207;28;98464;-49
2022/03/12 05:50:45;;;;;;;5.73;4.30;;;15.20;59.40;;;15.35;32.25;101255.25;4890036;28;97461;-49
2022/03/12 05:53:14;;;;;;;6.23;5.43;;;15.10;60.70;;;15.41;32.07;101250.50;4893395;28;97101;-51
2022/03/12 05:55:40;;;;;;;9.03;6.73;;;15.20;60.60;;;15.35;31.56;101249.94;4901534;28;103801;-49
2022/03/12 05:58:07;;;;;;;8.50;7.53;;;15.10;58.70;;;15.31;31.43;101269.59;4897074;28;97039;-49
2022/03/12 06:00:34;;;;;;;8.33;6.90;;;15.10;58.60;;;15.26;31.90;101267.16;4895883;28;97595;-50
2022/03/12 06:03:01;;;;;;;9.27;8.20;;;15.00;58.60;;;15.27;32.37;101262.69;4873706;28;98587;-51
2022/03/12 06:05:27;;;;;;;8.83;7.77;;;14.90;60.40;;;15.18;31.42;101275.47;4910328;28;97354;-51
2022/03/12 06:07:54;;;;;;;10.00;8.00;;;14.80;58.90;;;15.10;31.47;101259.00;4897117;28;97469;-49
2022/03/12 06:10:28;;;;;;;8.00;6.40;;;14.80;60.10;;;15.06;32.34;101264.53;4900152;28;114938;-54
2022/03/12 06:12:56;;;;;;;7.83;6.20;;;14.70;59.50;;;15.06;32.66;101262.75;4875227;28;97591;-50
2022/03/12 06:15:25;;;;;;;4.90;4.13;;;14.70;60.00;;;15.05;33.00;101261.03;4884670;28;97221;-50
2022/03/12 06:17:51;;;;;;;6.93;5.77;;;14.70;63.50;;;15.05;32.47;101258.38;4890612;28;97273;-59
2022/03/12 06:20:23;;;;;;;9.30;6.30;;;14.80;61.20;;;15.02;30.91;101258.47;4895772;28;114860;-51
2022/03/12 06:22:53;;;;;;;5.43;4.80;;;14.70;59.60;;;15.01;32.76;101256.75;4896929;28;97413;-52
2022/03/12 06:25:22;;;;;;;8.80;6.53;;;14.70;61.70;;;14.93;33.04;101269.53;4863967;28;97082;-54
2022/03/12 06:27:54;;;;;;;7.37;5.83;;;14.50;60.20;;;14.86;32.66;101274.22;4881535;28;97000;-50
2022/03/12 06:30:27;;;;;;;8.17;6.20;;;14.40;60.20;;;14.88;33.15;101268.84;4898322;28;102443;-50
2022/03/12 06:32:58;;;;;;;6.63;5.07;;;14.40;61.80;;;14.83;33.39;101265.53;4898198;28;98352;-48
2022/03/12 06:35:26;;;;;;;8.20;5.93;;;14.40;62.90;;;14.86;32.85;101268.06;4898266;28;96898;-51
2022/03/12 06:37:52;;;;;;;8.87;7.63;;;14.40;61.60;;;14.88;32.61;101269.72;4896418;28;97174;-50
2022/03/12 06:40:20;;;;;;;11.93;8.37;;;14.50;62.70;;;14.88;32.78;101274.16;4897165;28;97407;-49
2022/03/12 06:42:51;;;;;;;4.33;3.93;;;14.50;61.30;;;14.86;33.66;101274.22;4896374;28;96897;-49
2022/03/12 06:45:17;;;;;;;9.80;6.90;;;14.40;65.30;;;14.75;33.10;101278.28;4899323;28;97334;-49
2022/03/12 06:47:44;;;;;;;6.40;5.37;;;14.30;63.10;;;14.70;33.82;101283.78;4898303;28;97205;-50
2022/03/12 06:50:16;;;;;;;6.00;5.30;;;14.20;64.50;;;14.81;34.04;101275.38;4897805;28;97175;-48
2022/03/12 06:52:45;;;;;;;8.00;5.97;;;14.40;66.30;;;14.80;33.64;101273.66;4900682;28;97312;-49
2022/03/12 06:55:11;;;;;;;7.73;5.23;;;14.40;64.70;;;14.85;32.47;101282.28;4896011;28;97375;-52
2022/03/12 06:57:38;;;;;;;6.77;5.27;;;14.60;63.70;;;14.97;33.22;101284.41;4902936;28;97335;-50
2022/03/12 07:00:06;;;;;;;6.60;5.90;;;14.70;64.30;;;15.09;32.77;101281.22;4901682;28;118755;-49
2022/03/12 07:02:32;;;;;;;3.80;3.50;;;14.90;64.10;;;15.18;33.46;101264.84;4883608;28;102709;-49
2022/03/12 07:04:58;;;;;;;6.93;6.00;;;15.10;64.50;;;15.23;32.74;101266.44;4898259;28;125082;-49
2022/03/12 07:07:23;;;;;;;5.90;4.77;;;15.10;62.90;;;15.28;33.06;101275.06;4902696;28;118246;-49
2022/03/12 07:09:50;;;;;;;6.43;4.87;;;15.10;63.30;;;15.31;33.12;101277.56;4901555;28;98425;-60
2022/03/12 07:12:17;;;;;;;4.47;3.90;;;15.10;63.30;;;15.32;33.15;101281.94;4882468;28;101281;-49
2022/03/12 07:14:43;;;;;;;15.37;8.13;;;15.10;63.80;;;15.17;32.30;101279.06;4904550;28;96969;-50
2022/03/12 07:17:08;;;;;;;9.30;6.23;;;15.00;63.00;;;15.13;32.93;101281.94;4896268;28;124768;-49
2022/03/12 07:19:34;;;;;;;4.30;3.90;;;14.80;64.10;;;15.28;33.34;101280.38;4903227;28;99820;-53
2022/03/12 07:22:00;;;;;;;5.00;4.50;;;15.00;65.20;;;15.36;32.97;101283.56;4898303;28;116740;-50
2022/03/12 07:24:26;;;;;;;9.03;8.03;;;15.20;63.60;;;15.32;33.09;101279.28;4895526;28;96866;-50
2022/03/12 07:26:52;;;;;;;4.40;3.90;;;15.10;63.70;;;15.33;33.16;101281.00;4898940;28;110949;-52
2022/03/12 07:29:18;;;;;;;9.60;7.77;;;15.10;64.60;;;15.30;33.10;101278.50;4900922;28;108174;-52
2022/03/12 07:31:44;;;;;;;4.83;4.33;;;15.00;63.80;;;15.32;33.21;101277.50;4902412;28;123638;-48
2022/03/12 07:34:10;;;;;;;3.93;3.50;;;15.00;64.40;;;15.31;33.17;101280.22;4881445;28;96950;-49
2022/03/12 07:36:36;;;;;;;7.70;7.00;;;15.00;65.30;;;15.34;32.75;101288.94;4892448;28;97330;-49
2022/03/12 07:39:03;;;;;;;9.33;7.77;;;15.20;63.70;;;15.33;33.04;101294.31;4895640;28;123606;-51
2022/03/12 07:41:30;;;;;;;7.97;7.17;;;15.10;64.00;;;15.22;33.28;101296.59;4896007;28;98273;-51
2022/03/12 07:43:56;;;;;;;5.10;4.07;;;14.90;64.50;;;15.26;33.31;101296.38;4893650;28;96777;-50
2022/03/12 07:46:22;;;;;;;4.37;3.93;;;15.00;65.50;;;15.31;33.43;101297.03;4892971;28;97029;-50
2022/03/12 07:48:49;;;;;;;7.80;5.87;;;15.10;65.00;;;15.43;32.90;101300.94;4901012;28;98950;-49
2022/03/12 07:51:14;;;;;;;5.00;4.13;;;15.30;63.80;;;15.42;33.22;101305.41;4893203;28;97187;-49
2022/03/12 07:53:41;;;;;;;6.93;4.83;;;15.30;64.70;;;15.39;33.24;101310.84;4900136;28;98946;-49
2022/03/12 07:56:08;;;;;;;5.17;4.67;;;15.30;64.50;;;15.41;33.16;101308.13;4897258;28;97737;-52
2022/03/12 07:58:35;;;;;;;8.90;7.57;;;15.20;64.70;;;15.47;33.00;101297.19;4882464;28;99463;-52
2022/03/12 08:01:03;;;;;;;11.77;7.63;;;15.40;64.50;;;15.43;33.14;101311.56;4896416;28;97139;-52
2022/03/12 08:03:29;;;;;;;8.27;6.07;;;15.30;65.20;;;15.38;33.22;101310.94;4896687;28;97108;-49
2022/03/12 08:05:56;;;;;;;8.97;7.73;;;15.10;65.60;;;15.27;34.10;101315.84;4897573;28;96948;-51
2022/03/12 08:08:21;;;;;;;8.27;7.47;;;15.10;66.70;;;15.21;33.95;101317.00;4896720;28;97657;-51
2022/03/12 08:13:35;;;;;;;8.30;5.90;;;14.90;67.20;;;15.26;33.83;101320.31;4899772;28;96854;-49
2022/03/12 08:16:00;;;;;;;6.43;4.90;;;15.10;66.50;;;15.33;33.98;101326.19;4886482;28;97387;-52
2022/03/12 08:18:27;;;;;;;4.53;3.77;;;15.20;66.20;;;15.40;33.41;101327.66;4897680;28;98592;-52
2022/03/12 08:20:53;;;;;;;9.93;7.70;;;15.30;65.30;;;15.32;34.03;101324.47;4899192;28;96726;-51
2022/03/12 08:23:19;;;;;;;6.47;5.80;;;15.20;66.60;;;15.21;34.28;101329.44;4899175;28;97336;-51
2022/03/12 08:25:46;;;;;;;7.73;6.93;;;15.00;67.50;;;15.12;34.52;101339.53;4899630;28;98224;-53
2022/03/12 08:28:13;;;;;;;9.97;7.97;;;14.90;67.70;;;15.03;35.61;101345.22;4898617;28;96633;-52
2022/03/12 08:30:39;;;;;;;9.40;7.77;;;14.70;69.50;;;14.91;35.29;101356.41;4902279;28;96767;-50
2022/03/12 08:33:05;;;;;;;9.33;7.50;;;14.60;70.50;;;14.91;35.54;101351.09;4893527;28;97650;-55
2022/03/12 08:35:31;;;;;;;9.53;8.00;;;14.60;69.80;;;14.85;36.01;101357.50;4901537;28;99083;-52
2022/03/12 08:37:57;;;;;;;8.67;7.67;;;14.50;70.70;;;14.86;35.71;101364.53;4889090;28;97741;-54
2022/03/12 08:40:25;;;;;;;9.07;7.60;;;14.60;70.10;;;14.91;35.59;101352.88;4901159;28;126544;-54
2022/03/12 08:42:53;;;;;;;6.73;6.03;;;14.60;70.70;;;14.91;35.18;101359.06;4891262;28;97457;-58
2022/03/12 08:45:19;;;;;;;10.20;7.47;;;14.60;70.10;;;14.92;35.78;101363.44;4896942;28;96988;-53
2022/03/12 08:47:46;;;;;;;8.87;7.50;;;14.60;71.50;;;14.83;36.37;101372.66;4897989;28;123948;-48
2022/03/12 08:50:13;;;;;;;4.50;4.03;;;14.60;72.30;;;14.92;35.46;101363.44;4895817;28;98561;-48
2022/03/12 08:52:42;;;;;;;5.57;5.00;;;14.70;70.50;;;15.08;34.93;101364.50;4894068;28;97019;-51
2022/03/12 08:55:10;;;;;;;6.13;5.40;;;14.90;68.70;;;15.15;35.09;101365.94;4895920;28;96914;-49
2022/03/12 08:57:36;;;;;;;10.20;7.77;;;15.00;69.40;;;15.19;35.90;101364.06;4892703;28;97328;-52
2022/03/12 09:00:05;;;;;;;11.73;9.20;;;15.10;70.80;;;15.15;37.77;101370.41;4896654;28;101754;-48
2022/03/12 09:02:33;;;;;;;9.53;7.60;;;15.00;73.20;;;15.15;38.24;101371.25;4893632;28;96941;-53
2022/03/12 09:05:04;;;;;;;12.07;8.80;;;15.00;73.60;;;15.12;39.03;101376.72;4896140;28;96886;-52
2022/03/12 09:07:31;;;;;;;13.97;9.67;;;14.90;75.00;;;14.95;39.44;101384.56;4885865;28;97540;-53
2022/03/12 09:09:57;;;;;;;8.73;7.00;;;14.80;75.80;;;15.02;38.60;101383.34;4895681;28;97376;-51
2022/03/12 09:12:23;;;;;;;9.67;6.97;;;14.80;74.20;;;15.10;35.88;101383.91;4866889;28;96933;-50
2022/03/12 09:14:50;;;;;;;11.57;8.30;;;14.90;72.20;;;15.16;36.31;101388.94;4892486;28;122283;-51
2022/03/12 09:17:15;;;;;;;5.97;4.27;;;15.00;74.70;;;15.25;35.05;101394.81;4888308;28;97685;-49
2022/03/12 09:19:41;;;;;;;13.37;9.63;;;15.10;70.20;;;15.27;39.30;101391.13;4900220;28;99605;-49
2022/03/12 09:22:07;;;;;;;4.70;4.20;;;15.20;75.40;;;15.30;35.39;101384.81;4895160;28;98288;-52
2022/03/12 09:24:34;;;;;;;11.57;9.93;;;15.10;72.30;;;15.33;37.69;101395.31;4900648;28;121679;-51
2022/03/12 09:27:00;;;;;;;13.07;8.60;;;15.20;76.40;;;15.34;36.88;101392.63;4893526;28;98079;-48
2022/03/12 09:29:26;;;;;;;12.47;9.87;;;15.20;74.70;;;15.21;40.45;101394.06;4898689;28;125184;-51
2022/03/12 09:31:53;;;;;;;11.90;7.90;;;15.10;77.20;;;15.23;38.30;101397.53;4889710;28;97015;-57
2022/03/12 09:34:18;;;;;;;10.63;9.37;;;15.10;76.50;;;15.14;41.02;101388.16;4889630;28;128936;-50
2022/03/12 09:36:44;;;;;;;5.77;5.17;;;15.10;78.30;;;15.18;39.10;101387.06;4900510;28;101528;-49
2022/03/12 09:39:10;;;;;;;12.40;9.53;;;15.10;76.90;;;15.22;41.23;101402.91;4877043;28;112420;-52
2022/03/12 09:41:38;;;;;;;7.93;6.60;;;15.10;78.70;;;15.21;36.95;101393.22;4871896;28;97217;-51
2022/03/12 09:44:05;;;;;;;8.93;6.57;;;15.10;74.00;;;15.25;37.55;101397.47;4896265;28;96853;-52
2022/03/12 09:46:31;;;;;;;12.03;7.67;;;15.20;77.10;;;15.24;42.71;101403.72;4899255;28;98809;-51
2022/03/12 09:48:57;;;;;;;9.03;7.27;;;15.20;80.80;;;15.33;42.47;101390.84;4890509;28;98661;-53
2022/03/12 09:51:25;;;;;;;9.27;7.23;;;15.30;80.60;;;15.31;40.32;101392.72;4899432;28;113303;-52
2022/03/12 09:53:51;;;;;;;8.47;7.27;;;15.30;80.50;;;15.26;42.81;101391.22;4885468;28;97018;-59
2022/03/12 09:56:17;;;;;;;4.33;3.90;;;15.20;82.40;;;15.31;37.86;101397.19;4894643;28;124653;-50
2022/03/12 09:58:43;;;;;;;8.10;7.30;;;15.20;76.30;;;15.25;42.06;101393.00;4892762;28;111263;-50
2022/03/12 10:01:10;;;;;;;8.93;7.60;;;15.20;82.30;;;15.39;41.94;101387.09;4894724;28;97130;-52
2022/03/12 10:03:38;;;;;;;8.97;7.37;;;15.30;80.20;;;15.43;43.29;101388.66;4895177;28;97531;-52
2022/03/12 10:06:05;;;;;;;10.63;8.13;;;15.40;82.40;;;15.50;43.17;101386.63;4895648;28;97186;-52
2022/03/12 10:08:31;;;;;;;5.07;4.43;;;15.50;82.60;;;15.59;37.34;101387.09;4895202;28;97559;-51
2022/03/12 10:10:57;;;;;;;9.50;7.53;;;15.50;75.60;;;15.53;42.54;101386.47;4895424;28;96877;-52
2022/03/12 10:13:23;;;;;;;8.47;7.00;;;15.50;82.20;;;15.63;42.25;101380.72;4898162;28;117637;-52
2022/03/12 10:15:49;;;;;;;7.67;6.87;;;15.60;82.20;;;15.66;39.55;101385.91;4881678;28;98326;-51